Log in  \/ 
x
x

Gillespie Operations

The Plus One Flyers, Inc SEE office is located at 1987 N.Marshall Ave, El Cajon 92020

Your Plus One key will open the lock box where the office key is located. PLEASE BE SURE TO PUT THE KEY BACK IN THE BOX.

We just did a major remodel of the facility and we now have a large meeting/ class room with a large screen TV for presentations. 

Go check it out!

 

Additional info
  • Operations Officer: Dave Eby
  • Phone Number: 619-279-7499
  • E-Mail: seeops@plusoneflyers.org
Comments
  • No comments found

Leave your comments

0 Character restriction
Your text should be more than 10 characters
terms and condition.
Special Instructions

Use your Plus One key to gain access to the real estate lock box.  This key will open the door.  Please remember to return the key to the lock box.

Gillespie Weather

[source: ADDS]
METAR
KSEE 252047Z 28008KT 10SM SCT038 BKN044 19/10 A3008 =
KNKX 252055Z 29006KT 10SM SCT015 BKN026 21/11 A3008 RMK AO2 SLP181 T02110106 56018 $ =
TAF
TAF KNKX 2521/2621 VRB05KT 9999 SCT015 BKN026 QNH2999INS TEMPO 2521/2602 30009KT FM260330 VRB05KT 9999 FEW020 SCT050 QNH2998INS T21/2521Z T11/2612Z =
SR / SS: 13:43 / 02:03 UTC ( 2017-03-25)

Gillespie Operations Map